sensor_id;sensor_type;location;lat;lon;timestamp;P1;durP1;ratioP1;P2;durP2;ratioP2
62687;SDS011;48752;51.056;17.056;2022-12-18T00:00:12;44.08;;;17.67;;
62687;SDS011;48752;51.056;17.056;2022-12-18T00:02:38;44.03;;;17.77;;
62687;SDS011;48752;51.056;17.056;2022-12-18T00:05:05;45.65;;;17.50;;
62687;SDS011;48752;51.056;17.056;2022-12-18T00:07:37;53.78;;;16.67;;
62687;SDS011;48752;51.056;17.056;2022-12-18T00:10:04;46.78;;;18.45;;
62687;SDS011;48752;51.056;17.056;2022-12-18T00:12:29;53.13;;;15.98;;
62687;SDS011;48752;51.056;17.056;2022-12-18T00:14:55;43.42;;;15.25;;
62687;SDS011;48752;51.056;17.056;2022-12-18T00:17:21;44.10;;;15.73;;
62687;SDS011;48752;51.056;17.056;2022-12-18T00:19:47;47.20;;;16.40;;
62687;SDS011;48752;51.056;17.056;2022-12-18T00:22:12;40.80;;;15.85;;
62687;SDS011;48752;51.056;17.056;2022-12-18T00:24:37;42.00;;;15.35;;
62687;SDS011;48752;51.056;17.056;2022-12-18T00:27:08;44.55;;;15.45;;
62687;SDS011;48752;51.056;17.056;2022-12-18T00:29:35;52.10;;;17.20;;
62687;SDS011;48752;51.056;17.056;2022-12-18T00:32:00;40.95;;;15.43;;
62687;SDS011;48752;51.056;17.056;2022-12-18T00:34:29;44.17;;;15.35;;
62687;SDS011;48752;51.056;17.056;2022-12-18T00:36:55;41.95;;;17.23;;
62687;SDS011;48752;51.056;17.056;2022-12-18T00:39:21;47.55;;;17.08;;
62687;SDS011;48752;51.056;17.056;2022-12-18T00:41:46;39.88;;;14.45;;
62687;SDS011;48752;51.056;17.056;2022-12-18T00:44:40;40.33;;;16.00;;
62687;SDS011;48752;51.056;17.056;2022-12-18T00:47:05;44.42;;;16.38;;
62687;SDS011;48752;51.056;17.056;2022-12-18T00:49:33;34.35;;;15.20;;
62687;SDS011;48752;51.056;17.056;2022-12-18T00:54:42;33.03;;;13.93;;
62687;SDS011;48752;51.056;17.056;2022-12-18T00:57:08;41.38;;;14.55;;
62687;SDS011;48752;51.056;17.056;2022-12-18T00:59:34;40.63;;;15.05;;
62687;SDS011;48752;51.056;17.056;2022-12-18T01:02:01;41.35;;;15.95;;
62687;SDS011;48752;51.056;17.056;2022-12-18T01:04:29;41.53;;;16.15;;
62687;SDS011;48752;51.056;17.056;2022-12-18T01:06:56;46.10;;;16.42;;
62687;SDS011;48752;51.056;17.056;2022-12-18T01:09:22;49.35;;;18.52;;
62687;SDS011;48752;51.056;17.056;2022-12-18T01:11:48;42.90;;;18.02;;
62687;SDS011;48752;51.056;17.056;2022-12-18T01:14:14;49.45;;;18.23;;
62687;SDS011;48752;51.056;17.056;2022-12-18T01:16:40;48.40;;;17.02;;
62687;SDS011;48752;51.056;17.056;2022-12-18T01:19:13;47.05;;;15.48;;
62687;SDS011;48752;51.056;17.056;2022-12-18T01:21:38;40.80;;;15.85;;
62687;SDS011;48752;51.056;17.056;2022-12-18T01:24:04;44.00;;;17.20;;
62687;SDS011;48752;51.056;17.056;2022-12-18T01:26:32;48.47;;;18.20;;
62687;SDS011;48752;51.056;17.056;2022-12-18T01:28:59;49.90;;;17.08;;
62687;SDS011;48752;51.056;17.056;2022-12-18T01:31:28;46.50;;;16.88;;
62687;SDS011;48752;51.056;17.056;2022-12-18T01:33:56;42.75;;;15.88;;
62687;SDS011;48752;51.056;17.056;2022-12-18T01:36:26;37.30;;;14.82;;
62687;SDS011;48752;51.056;17.056;2022-12-18T01:38:55;44.33;;;16.20;;
62687;SDS011;48752;51.056;17.056;2022-12-18T01:41:29;42.03;;;15.93;;
62687;SDS011;48752;51.056;17.056;2022-12-18T01:50:05;41.00;;;16.00;;
62687;SDS011;48752;51.056;17.056;2022-12-18T01:52:32;44.10;;;15.60;;
62687;SDS011;48752;51.056;17.056;2022-12-18T01:55:00;44.35;;;15.00;;
62687;SDS011;48752;51.056;17.056;2022-12-18T01:57:43;40.60;;;15.05;;
62687;SDS011;48752;51.056;17.056;2022-12-18T02:00:13;47.40;;;18.35;;
62687;SDS011;48752;51.056;17.056;2022-12-18T02:02:43;41.65;;;15.27;;
62687;SDS011;48752;51.056;17.056;2022-12-18T02:05:10;38.53;;;14.63;;
62687;SDS011;48752;51.056;17.056;2022-12-18T02:10:13;43.63;;;15.77;;
62687;SDS011;48752;51.056;17.056;2022-12-18T02:15:33;45.22;;;15.52;;
62687;SDS011;48752;51.056;17.056;2022-12-18T02:18:13;43.10;;;16.30;;
62687;SDS011;48752;51.056;17.056;2022-12-18T02:20:54;36.65;;;14.18;;
62687;SDS011;48752;51.056;17.056;2022-12-18T02:26:46;41.20;;;15.10;;
62687;SDS011;48752;51.056;17.056;2022-12-18T02:29:20;42.65;;;16.13;;
62687;SDS011;48752;51.056;17.056;2022-12-18T02:31:51;44.50;;;15.20;;
62687;SDS011;48752;51.056;17.056;2022-12-18T02:34:19;36.25;;;14.52;;
62687;SDS011;48752;51.056;17.056;2022-12-18T02:36:50;37.97;;;14.43;;
62687;SDS011;48752;51.056;17.056;2022-12-18T02:39:17;43.80;;;16.63;;
62687;SDS011;48752;51.056;17.056;2022-12-18T02:41:45;37.33;;;14.85;;
62687;SDS011;48752;51.056;17.056;2022-12-18T02:44:12;43.58;;;16.92;;
62687;SDS011;48752;51.056;17.056;2022-12-18T02:51:39;49.55;;;17.42;;
62687;SDS011;48752;51.056;17.056;2022-12-18T02:55:04;37.53;;;15.70;;
62687;SDS011;48752;51.056;17.056;2022-12-18T02:57:11;41.50;;;15.90;;
62687;SDS011;48752;51.056;17.056;2022-12-18T02:59:41;41.38;;;15.50;;
62687;SDS011;48752;51.056;17.056;2022-12-18T03:05:14;42.85;;;15.93;;
62687;SDS011;48752;51.056;17.056;2022-12-18T03:07:53;41.10;;;14.45;;
62687;SDS011;48752;51.056;17.056;2022-12-18T03:10:27;40.03;;;16.45;;
62687;SDS011;48752;51.056;17.056;2022-12-18T03:12:56;37.78;;;14.13;;
62687;SDS011;48752;51.056;17.056;2022-12-18T03:15:47;34.30;;;14.02;;
62687;SDS011;48752;51.056;17.056;2022-12-18T03:18:21;33.03;;;14.27;;
62687;SDS011;48752;51.056;17.056;2022-12-18T03:21:10;36.65;;;15.20;;
62687;SDS011;48752;51.056;17.056;2022-12-18T03:23:39;41.00;;;15.55;;
62687;SDS011;48752;51.056;17.056;2022-12-18T03:26:09;38.40;;;16.25;;
62687;SDS011;48752;51.056;17.056;2022-12-18T03:28:37;41.83;;;14.43;;
62687;SDS011;48752;51.056;17.056;2022-12-18T03:31:12;35.50;;;15.63;;
62687;SDS011;48752;51.056;17.056;2022-12-18T03:33:59;35.53;;;14.52;;
62687;SDS011;48752;51.056;17.056;2022-12-18T03:36:30;32.83;;;12.68;;
62687;SDS011;48752;51.056;17.056;2022-12-18T03:38:59;39.53;;;14.25;;
62687;SDS011;48752;51.056;17.056;2022-12-18T03:41:31;43.65;;;16.05;;
62687;SDS011;48752;51.056;17.056;2022-12-18T03:47:38;43.40;;;15.55;;
62687;SDS011;48752;51.056;17.056;2022-12-18T03:49:51;39.38;;;15.45;;
62687;SDS011;48752;51.056;17.056;2022-12-18T03:53:05;44.13;;;16.60;;
62687;SDS011;48752;51.056;17.056;2022-12-18T03:55:30;36.28;;;14.60;;
62687;SDS011;48752;51.056;17.056;2022-12-18T03:57:58;44.08;;;18.08;;
62687;SDS011;48752;51.056;17.056;2022-12-18T04:00:25;41.03;;;14.85;;
62687;SDS011;48752;51.056;17.056;2022-12-18T04:02:52;40.47;;;15.52;;
62687;SDS011;48752;51.056;17.056;2022-12-18T04:05:34;43.08;;;15.93;;
62687;SDS011;48752;51.056;17.056;2022-12-18T04:08:09;46.30;;;14.82;;
62687;SDS011;48752;51.056;17.056;2022-12-18T04:10:36;41.60;;;15.48;;
62687;SDS011;48752;51.056;17.056;2022-12-18T04:13:02;43.08;;;15.95;;
62687;SDS011;48752;51.056;17.056;2022-12-18T04:15:28;42.75;;;17.00;;
62687;SDS011;48752;51.056;17.056;2022-12-18T04:17:53;33.72;;;13.93;;
62687;SDS011;48752;51.056;17.056;2022-12-18T04:20:20;44.83;;;17.52;;
62687;SDS011;48752;51.056;17.056;2022-12-18T04:22:47;44.50;;;16.27;;
62687;SDS011;48752;51.056;17.056;2022-12-18T04:25:13;45.40;;;16.95;;
62687;SDS011;48752;51.056;17.056;2022-12-18T04:27:40;41.85;;;16.35;;
62687;SDS011;48752;51.056;17.056;2022-12-18T04:30:06;41.35;;;16.90;;
62687;SDS011;48752;51.056;17.056;2022-12-18T04:32:33;45.10;;;16.17;;
62687;SDS011;48752;51.056;17.056;2022-12-18T04:35:06;44.75;;;16.60;;
62687;SDS011;48752;51.056;17.056;2022-12-18T04:37:35;43.15;;;15.43;;
62687;SDS011;48752;51.056;17.056;2022-12-18T04:40:07;39.85;;;16.88;;
62687;SDS011;48752;51.056;17.056;2022-12-18T04:42:33;47.03;;;15.98;;
62687;SDS011;48752;51.056;17.056;2022-12-18T04:44:58;40.85;;;16.23;;
62687;SDS011;48752;51.056;17.056;2022-12-18T04:47:25;38.88;;;15.98;;
62687;SDS011;48752;51.056;17.056;2022-12-18T04:49:53;41.22;;;15.90;;
62687;SDS011;48752;51.056;17.056;2022-12-18T04:52:19;37.20;;;14.75;;
62687;SDS011;48752;51.056;17.056;2022-12-18T04:54:46;46.20;;;16.88;;
62687;SDS011;48752;51.056;17.056;2022-12-18T04:57:13;38.30;;;16.10;;
62687;SDS011;48752;51.056;17.056;2022-12-18T04:59:39;48.95;;;18.05;;
62687;SDS011;48752;51.056;17.056;2022-12-18T05:02:05;43.05;;;16.67;;
62687;SDS011;48752;51.056;17.056;2022-12-18T05:04:39;41.80;;;18.95;;
62687;SDS011;48752;51.056;17.056;2022-12-18T05:07:06;42.50;;;15.38;;
62687;SDS011;48752;51.056;17.056;2022-12-18T05:09:32;31.92;;;14.55;;
62687;SDS011;48752;51.056;17.056;2022-12-18T05:11:58;46.70;;;17.65;;
62687;SDS011;48752;51.056;17.056;2022-12-18T05:14:25;41.63;;;15.18;;
62687;SDS011;48752;51.056;17.056;2022-12-18T05:16:55;32.17;;;13.77;;
62687;SDS011;48752;51.056;17.056;2022-12-18T05:19:21;45.00;;;16.02;;
62687;SDS011;48752;51.056;17.056;2022-12-18T05:21:47;41.53;;;13.85;;
62687;SDS011;48752;51.056;17.056;2022-12-18T05:24:15;36.17;;;15.68;;
62687;SDS011;48752;51.056;17.056;2022-12-18T05:26:40;42.70;;;16.30;;
62687;SDS011;48752;51.056;17.056;2022-12-18T05:29:06;43.28;;;16.15;;
62687;SDS011;48752;51.056;17.056;2022-12-18T05:31:38;49.63;;;16.60;;
62687;SDS011;48752;51.056;17.056;2022-12-18T05:34:05;45.72;;;17.33;;
62687;SDS011;48752;51.056;17.056;2022-12-18T05:36:32;47.15;;;15.35;;
62687;SDS011;48752;51.056;17.056;2022-12-18T05:39:00;38.28;;;16.27;;
62687;SDS011;48752;51.056;17.056;2022-12-18T05:41:26;47.20;;;19.25;;
62687;SDS011;48752;51.056;17.056;2022-12-18T05:43:53;42.70;;;16.58;;
62687;SDS011;48752;51.056;17.056;2022-12-18T05:46:21;46.13;;;17.13;;
62687;SDS011;48752;51.056;17.056;2022-12-18T05:48:48;47.25;;;18.55;;
62687;SDS011;48752;51.056;17.056;2022-12-18T05:51:16;48.50;;;18.90;;
62687;SDS011;48752;51.056;17.056;2022-12-18T05:53:57;48.17;;;17.80;;
62687;SDS011;48752;51.056;17.056;2022-12-18T05:56:22;49.72;;;19.23;;
62687;SDS011;48752;51.056;17.056;2022-12-18T05:58:53;61.20;;;22.27;;
62687;SDS011;48752;51.056;17.056;2022-12-18T06:01:20;48.20;;;20.38;;
62687;SDS011;48752;51.056;17.056;2022-12-18T06:06:20;57.97;;;21.85;;
62687;SDS011;48752;51.056;17.056;2022-12-18T06:08:50;50.67;;;19.70;;
62687;SDS011;48752;51.056;17.056;2022-12-18T06:11:18;47.65;;;20.13;;
62687;SDS011;48752;51.056;17.056;2022-12-18T06:13:45;50.13;;;20.33;;
62687;SDS011;48752;51.056;17.056;2022-12-18T06:16:11;54.78;;;21.00;;
62687;SDS011;48752;51.056;17.056;2022-12-18T06:18:38;50.42;;;19.25;;
62687;SDS011;48752;51.056;17.056;2022-12-18T06:21:04;61.50;;;22.05;;
62687;SDS011;48752;51.056;17.056;2022-12-18T06:23:31;62.70;;;23.50;;
62687;SDS011;48752;51.056;17.056;2022-12-18T06:25:58;54.38;;;21.25;;
62687;SDS011;48752;51.056;17.056;2022-12-18T06:28:28;56.38;;;21.95;;
62687;SDS011;48752;51.056;17.056;2022-12-18T06:30:54;58.85;;;20.33;;
62687;SDS011;48752;51.056;17.056;2022-12-18T06:33:20;56.88;;;21.65;;
62687;SDS011;48752;51.056;17.056;2022-12-18T06:35:53;53.50;;;21.50;;
62687;SDS011;48752;51.056;17.056;2022-12-18T06:38:19;49.47;;;20.35;;
62687;SDS011;48752;51.056;17.056;2022-12-18T06:40:46;62.17;;;23.77;;
62687;SDS011;48752;51.056;17.056;2022-12-18T06:43:12;55.97;;;20.65;;
62687;SDS011;48752;51.056;17.056;2022-12-18T06:45:39;53.30;;;23.05;;
62687;SDS011;48752;51.056;17.056;2022-12-18T06:48:07;52.42;;;22.20;;
62687;SDS011;48752;51.056;17.056;2022-12-18T06:50:34;56.58;;;22.08;;
62687;SDS011;48752;51.056;17.056;2022-12-18T06:53:02;55.53;;;22.85;;
62687;SDS011;48752;51.056;17.056;2022-12-18T06:55:27;54.65;;;20.83;;
62687;SDS011;48752;51.056;17.056;2022-12-18T06:57:53;54.88;;;20.92;;
62687;SDS011;48752;51.056;17.056;2022-12-18T07:00:20;61.17;;;22.90;;
62687;SDS011;48752;51.056;17.056;2022-12-18T07:02:46;56.33;;;22.73;;
62687;SDS011;48752;51.056;17.056;2022-12-18T07:05:12;61.88;;;22.75;;
62687;SDS011;48752;51.056;17.056;2022-12-18T07:07:40;56.08;;;21.38;;
62687;SDS011;48752;51.056;17.056;2022-12-18T07:10:14;57.42;;;21.45;;
62687;SDS011;48752;51.056;17.056;2022-12-18T07:12:39;64.32;;;24.50;;
62687;SDS011;48752;51.056;17.056;2022-12-18T07:15:06;59.08;;;22.10;;
62687;SDS011;48752;51.056;17.056;2022-12-18T07:17:33;61.60;;;24.63;;
62687;SDS011;48752;51.056;17.056;2022-12-18T07:19:59;63.75;;;24.10;;
62687;SDS011;48752;51.056;17.056;2022-12-18T07:22:26;52.95;;;23.65;;
62687;SDS011;48752;51.056;17.056;2022-12-18T07:24:52;59.90;;;26.40;;
62687;SDS011;48752;51.056;17.056;2022-12-18T07:27:17;57.67;;;24.65;;
62687;SDS011;48752;51.056;17.056;2022-12-18T07:29:44;66.13;;;24.38;;
62687;SDS011;48752;51.056;17.056;2022-12-18T07:32:09;52.65;;;23.10;;
62687;SDS011;48752;51.056;17.056;2022-12-18T07:34:35;66.85;;;25.98;;
62687;SDS011;48752;51.056;17.056;2022-12-18T07:37:01;57.53;;;24.58;;
62687;SDS011;48752;51.056;17.056;2022-12-18T07:39:27;64.07;;;23.73;;
62687;SDS011;48752;51.056;17.056;2022-12-18T07:41:53;60.70;;;21.65;;
62687;SDS011;48752;51.056;17.056;2022-12-18T07:44:37;51.33;;;21.55;;
62687;SDS011;48752;51.056;17.056;2022-12-18T07:47:04;49.35;;;20.10;;
62687;SDS011;48752;51.056;17.056;2022-12-18T07:49:31;50.20;;;18.15;;
62687;SDS011;48752;51.056;17.056;2022-12-18T07:52:02;48.80;;;20.15;;
62687;SDS011;48752;51.056;17.056;2022-12-18T07:54:28;44.38;;;18.60;;
62687;SDS011;48752;51.056;17.056;2022-12-18T07:56:55;48.90;;;19.13;;
62687;SDS011;48752;51.056;17.056;2022-12-18T07:59:22;49.28;;;19.58;;
62687;SDS011;48752;51.056;17.056;2022-12-18T08:01:47;38.65;;;16.13;;
62687;SDS011;48752;51.056;17.056;2022-12-18T08:04:13;45.42;;;18.95;;
62687;SDS011;48752;51.056;17.056;2022-12-18T08:06:40;39.45;;;18.85;;
62687;SDS011;48752;51.056;17.056;2022-12-18T08:09:06;45.53;;;18.33;;
62687;SDS011;48752;51.056;17.056;2022-12-18T08:11:33;43.72;;;17.83;;
62687;SDS011;48752;51.056;17.056;2022-12-18T08:14:04;40.70;;;18.08;;
62687;SDS011;48752;51.056;17.056;2022-12-18T08:16:30;42.72;;;18.27;;
62687;SDS011;48752;51.056;17.056;2022-12-18T08:18:56;40.65;;;18.10;;
62687;SDS011;48752;51.056;17.056;2022-12-18T08:21:27;40.90;;;18.92;;
62687;SDS011;48752;51.056;17.056;2022-12-18T08:23:56;49.33;;;19.65;;
62687;SDS011;48752;51.056;17.056;2022-12-18T08:26:25;46.50;;;17.45;;
62687;SDS011;48752;51.056;17.056;2022-12-18T08:28:53;41.58;;;18.08;;
62687;SDS011;48752;51.056;17.056;2022-12-18T08:31:21;40.60;;;17.40;;
62687;SDS011;48752;51.056;17.056;2022-12-18T08:33:51;41.25;;;17.27;;
62687;SDS011;48752;51.056;17.056;2022-12-18T08:36:21;41.60;;;17.88;;
62687;SDS011;48752;51.056;17.056;2022-12-18T08:38:47;43.67;;;18.33;;
62687;SDS011;48752;51.056;17.056;2022-12-18T08:41:14;38.33;;;17.48;;
62687;SDS011;48752;51.056;17.056;2022-12-18T08:43:40;41.08;;;16.63;;
62687;SDS011;48752;51.056;17.056;2022-12-18T08:46:26;43.40;;;18.00;;
62687;SDS011;48752;51.056;17.056;2022-12-18T08:48:57;42.40;;;17.98;;
62687;SDS011;48752;51.056;17.056;2022-12-18T08:51:24;37.72;;;17.20;;
62687;SDS011;48752;51.056;17.056;2022-12-18T08:53:49;41.05;;;16.50;;
62687;SDS011;48752;51.056;17.056;2022-12-18T08:56:15;42.08;;;17.17;;
62687;SDS011;48752;51.056;17.056;2022-12-18T08:58:43;40.58;;;17.88;;
62687;SDS011;48752;51.056;17.056;2022-12-18T09:01:10;41.42;;;17.85;;
62687;SDS011;48752;51.056;17.056;2022-12-18T09:03:37;40.47;;;17.45;;
62687;SDS011;48752;51.056;17.056;2022-12-18T09:06:04;48.20;;;17.55;;
62687;SDS011;48752;51.056;17.056;2022-12-18T09:08:31;38.35;;;15.77;;
62687;SDS011;48752;51.056;17.056;2022-12-18T09:11:03;38.00;;;16.85;;
62687;SDS011;48752;51.056;17.056;2022-12-18T09:13:31;33.40;;;15.65;;
62687;SDS011;48752;51.056;17.056;2022-12-18T09:15:56;36.38;;;17.33;;
62687;SDS011;48752;51.056;17.056;2022-12-18T09:18:23;39.22;;;17.10;;
62687;SDS011;48752;51.056;17.056;2022-12-18T09:20:49;47.15;;;18.83;;
62687;SDS011;48752;51.056;17.056;2022-12-18T09:23:18;39.53;;;18.00;;
62687;SDS011;48752;51.056;17.056;2022-12-18T09:25:44;42.50;;;18.95;;
62687;SDS011;48752;51.056;17.056;2022-12-18T09:28:13;43.42;;;18.73;;
62687;SDS011;48752;51.056;17.056;2022-12-18T09:30:43;35.60;;;16.10;;
62687;SDS011;48752;51.056;17.056;2022-12-18T09:33:09;38.67;;;18.27;;
62687;SDS011;48752;51.056;17.056;2022-12-18T09:35:40;49.47;;;18.77;;
62687;SDS011;48752;51.056;17.056;2022-12-18T09:38:07;45.15;;;19.63;;
62687;SDS011;48752;51.056;17.056;2022-12-18T09:41:14;40.67;;;16.67;;
62687;SDS011;48752;51.056;17.056;2022-12-18T09:43:30;45.38;;;16.73;;
62687;SDS011;48752;51.056;17.056;2022-12-18T09:46:01;39.95;;;19.20;;
62687;SDS011;48752;51.056;17.056;2022-12-18T09:48:40;45.60;;;18.25;;
62687;SDS011;48752;51.056;17.056;2022-12-18T09:51:29;43.25;;;18.42;;
62687;SDS011;48752;51.056;17.056;2022-12-18T09:54:05;45.35;;;19.02;;
62687;SDS011;48752;51.056;17.056;2022-12-18T09:56:35;49.28;;;18.25;;
62687;SDS011;48752;51.056;17.056;2022-12-18T09:59:04;52.30;;;21.83;;
62687;SDS011;48752;51.056;17.056;2022-12-18T10:01:31;48.50;;;18.35;;
62687;SDS011;48752;51.056;17.056;2022-12-18T10:03:58;45.15;;;18.95;;
62687;SDS011;48752;51.056;17.056;2022-12-18T10:06:26;50.50;;;17.60;;
62687;SDS011;48752;51.056;17.056;2022-12-18T10:14:58;51.05;;;19.38;;
62687;SDS011;48752;51.056;17.056;2022-12-18T10:19:59;45.00;;;17.88;;
62687;SDS011;48752;51.056;17.056;2022-12-18T10:25:26;45.50;;;19.35;;
62687;SDS011;48752;51.056;17.056;2022-12-18T10:27:56;48.13;;;19.17;;
62687;SDS011;48752;51.056;17.056;2022-12-18T10:30:23;46.65;;;19.42;;
62687;SDS011;48752;51.056;17.056;2022-12-18T10:32:50;51.25;;;19.98;;
62687;SDS011;48752;51.056;17.056;2022-12-18T10:35:21;54.17;;;19.23;;
62687;SDS011;48752;51.056;17.056;2022-12-18T10:40:33;49.22;;;19.88;;
62687;SDS011;48752;51.056;17.056;2022-12-18T10:43:22;52.63;;;20.13;;
62687;SDS011;48752;51.056;17.056;2022-12-18T10:46:23;53.95;;;20.58;;
62687;SDS011;48752;51.056;17.056;2022-12-18T10:48:51;52.83;;;20.90;;
62687;SDS011;48752;51.056;17.056;2022-12-18T10:53:54;52.53;;;20.10;;
62687;SDS011;48752;51.056;17.056;2022-12-18T10:56:29;56.70;;;22.65;;
62687;SDS011;48752;51.056;17.056;2022-12-18T10:59:02;55.45;;;22.75;;
62687;SDS011;48752;51.056;17.056;2022-12-18T11:01:51;63.55;;;21.35;;
62687;SDS011;48752;51.056;17.056;2022-12-18T11:04:30;59.33;;;19.73;;
62687;SDS011;48752;51.056;17.056;2022-12-18T11:06:57;57.28;;;20.80;;
62687;SDS011;48752;51.056;17.056;2022-12-18T11:09:28;51.85;;;20.92;;
62687;SDS011;48752;51.056;17.056;2022-12-18T11:17:17;53.05;;;19.58;;
62687;SDS011;48752;51.056;17.056;2022-12-18T11:19:43;51.83;;;20.65;;
62687;SDS011;48752;51.056;17.056;2022-12-18T11:22:23;48.08;;;19.20;;
62687;SDS011;48752;51.056;17.056;2022-12-18T11:25:01;50.28;;;18.70;;
62687;SDS011;48752;51.056;17.056;2022-12-18T11:27:37;42.85;;;17.00;;
62687;SDS011;48752;51.056;17.056;2022-12-18T11:30:13;45.30;;;17.40;;
62687;SDS011;48752;51.056;17.056;2022-12-18T11:33:00;41.10;;;16.63;;
62687;SDS011;48752;51.056;17.056;2022-12-18T11:38:22;45.45;;;17.42;;
62687;SDS011;48752;51.056;17.056;2022-12-18T11:40:55;44.65;;;16.38;;
62687;SDS011;48752;51.056;17.056;2022-12-18T11:43:29;48.13;;;18.50;;
62687;SDS011;48752;51.056;17.056;2022-12-18T11:49:07;47.28;;;17.77;;
62687;SDS011;48752;51.056;17.056;2022-12-18T11:52:19;46.50;;;19.90;;
62687;SDS011;48752;51.056;17.056;2022-12-18T11:54:55;40.70;;;16.95;;
62687;SDS011;48752;51.056;17.056;2022-12-18T12:00:24;48.20;;;18.60;;
62687;SDS011;48752;51.056;17.056;2022-12-18T12:14:31;56.97;;;18.65;;
62687;SDS011;48752;51.056;17.056;2022-12-18T12:25:40;47.70;;;20.15;;
62687;SDS011;48752;51.056;17.056;2022-12-18T12:28:25;53.42;;;20.90;;
62687;SDS011;48752;51.056;17.056;2022-12-18T12:36:15;47.83;;;19.42;;
62687;SDS011;48752;51.056;17.056;2022-12-18T12:38:46;65.25;;;22.00;;
62687;SDS011;48752;51.056;17.056;2022-12-18T12:41:17;52.28;;;21.00;;
62687;SDS011;48752;51.056;17.056;2022-12-18T12:44:05;52.22;;;20.15;;
62687;SDS011;48752;51.056;17.056;2022-12-18T12:46:33;51.53;;;22.05;;
62687;SDS011;48752;51.056;17.056;2022-12-18T12:49:02;49.85;;;19.67;;
62687;SDS011;48752;51.056;17.056;2022-12-18T12:51:33;67.65;;;21.40;;
62687;SDS011;48752;51.056;17.056;2022-12-18T12:54:01;52.67;;;21.80;;
62687;SDS011;48752;51.056;17.056;2022-12-18T12:56:48;68.00;;;23.60;;
62687;SDS011;48752;51.056;17.056;2022-12-18T13:02:28;59.17;;;23.52;;
62687;SDS011;48752;51.056;17.056;2022-12-18T13:05:26;58.05;;;22.20;;
62687;SDS011;48752;51.056;17.056;2022-12-18T13:10:47;54.78;;;21.70;;
62687;SDS011;48752;51.056;17.056;2022-12-18T13:13:13;53.13;;;21.63;;
62687;SDS011;48752;51.056;17.056;2022-12-18T13:15:48;65.82;;;23.50;;
62687;SDS011;48752;51.056;17.056;2022-12-18T13:18:29;62.70;;;23.63;;
62687;SDS011;48752;51.056;17.056;2022-12-18T13:28:18;58.22;;;24.73;;
62687;SDS011;48752;51.056;17.056;2022-12-18T13:30:50;63.83;;;24.88;;
62687;SDS011;48752;51.056;17.056;2022-12-18T13:38:25;64.45;;;24.45;;
62687;SDS011;48752;51.056;17.056;2022-12-18T13:40:59;69.13;;;24.67;;
62687;SDS011;48752;51.056;17.056;2022-12-18T13:52:15;60.28;;;23.45;;
62687;SDS011;48752;51.056;17.056;2022-12-18T13:54:41;65.88;;;24.20;;
62687;SDS011;48752;51.056;17.056;2022-12-18T13:59:57;62.40;;;21.95;;
62687;SDS011;48752;51.056;17.056;2022-12-18T14:02:24;59.38;;;23.75;;
62687;SDS011;48752;51.056;17.056;2022-12-18T14:04:53;63.00;;;24.27;;
62687;SDS011;48752;51.056;17.056;2022-12-18T14:07:21;62.38;;;22.42;;
62687;SDS011;48752;51.056;17.056;2022-12-18T14:09:55;56.35;;;22.48;;
62687;SDS011;48752;51.056;17.056;2022-12-18T14:12:36;69.70;;;23.92;;
62687;SDS011;48752;51.056;17.056;2022-12-18T14:15:31;64.45;;;22.98;;
62687;SDS011;48752;51.056;17.056;2022-12-18T14:18:23;59.38;;;22.38;;
62687;SDS011;48752;51.056;17.056;2022-12-18T14:21:02;56.97;;;21.60;;
62687;SDS011;48752;51.056;17.056;2022-12-18T14:23:31;59.17;;;23.65;;
62687;SDS011;48752;51.056;17.056;2022-12-18T14:26:20;68.18;;;22.50;;
62687;SDS011;48752;51.056;17.056;2022-12-18T14:28:46;60.40;;;22.23;;
62687;SDS011;48752;51.056;17.056;2022-12-18T14:31:30;62.78;;;22.75;;
62687;SDS011;48752;51.056;17.056;2022-12-18T14:33:56;67.95;;;23.33;;
62687;SDS011;48752;51.056;17.056;2022-12-18T14:36:24;66.90;;;23.33;;
62687;SDS011;48752;51.056;17.056;2022-12-18T14:38:54;60.55;;;24.23;;
62687;SDS011;48752;51.056;17.056;2022-12-18T14:41:21;61.00;;;24.45;;
62687;SDS011;48752;51.056;17.056;2022-12-18T14:43:48;69.55;;;23.77;;
62687;SDS011;48752;51.056;17.056;2022-12-18T14:49:17;70.13;;;24.38;;
62687;SDS011;48752;51.056;17.056;2022-12-18T14:51:49;69.90;;;25.25;;
62687;SDS011;48752;51.056;17.056;2022-12-18T14:54:24;66.30;;;27.00;;
62687;SDS011;48752;51.056;17.056;2022-12-18T14:56:51;72.75;;;26.85;;
62687;SDS011;48752;51.056;17.056;2022-12-18T14:59:23;76.68;;;23.92;;
62687;SDS011;48752;51.056;17.056;2022-12-18T15:04:41;71.03;;;24.13;;
62687;SDS011;48752;51.056;17.056;2022-12-18T15:12:37;75.38;;;24.08;;
62687;SDS011;48752;51.056;17.056;2022-12-18T15:21:06;74.78;;;26.02;;
62687;SDS011;48752;51.056;17.056;2022-12-18T15:23:55;65.47;;;24.85;;
62687;SDS011;48752;51.056;17.056;2022-12-18T15:26:21;74.10;;;26.95;;
62687;SDS011;48752;51.056;17.056;2022-12-18T15:28:48;74.10;;;26.55;;
62687;SDS011;48752;51.056;17.056;2022-12-18T15:36:59;71.20;;;27.17;;
62687;SDS011;48752;51.056;17.056;2022-12-18T15:39:24;73.00;;;26.55;;
62687;SDS011;48752;51.056;17.056;2022-12-18T15:41:51;71.97;;;26.60;;
62687;SDS011;48752;51.056;17.056;2022-12-18T15:44:35;77.93;;;28.50;;
62687;SDS011;48752;51.056;17.056;2022-12-18T15:47:01;83.38;;;28.35;;
62687;SDS011;48752;51.056;17.056;2022-12-18T15:49:27;78.15;;;28.58;;
62687;SDS011;48752;51.056;17.056;2022-12-18T15:51:54;78.68;;;28.20;;
62687;SDS011;48752;51.056;17.056;2022-12-18T15:54:22;78.97;;;28.23;;
62687;SDS011;48752;51.056;17.056;2022-12-18T15:57:14;72.90;;;28.08;;
62687;SDS011;48752;51.056;17.056;2022-12-18T15:59:48;87.55;;;31.33;;
62687;SDS011;48752;51.056;17.056;2022-12-18T16:02:19;72.90;;;26.08;;
62687;SDS011;48752;51.056;17.056;2022-12-18T16:04:45;85.45;;;30.30;;
62687;SDS011;48752;51.056;17.056;2022-12-18T16:07:11;93.75;;;32.83;;
62687;SDS011;48752;51.056;17.056;2022-12-18T16:09:39;89.60;;;33.03;;
62687;SDS011;48752;51.056;17.056;2022-12-18T16:12:14;90.63;;;32.22;;
62687;SDS011;48752;51.056;17.056;2022-12-18T16:14:41;82.45;;;30.25;;
62687;SDS011;48752;51.056;17.056;2022-12-18T16:17:09;88.30;;;30.77;;
62687;SDS011;48752;51.056;17.056;2022-12-18T16:19:35;82.47;;;31.23;;
62687;SDS011;48752;51.056;17.056;2022-12-18T16:22:04;95.28;;;33.10;;
62687;SDS011;48752;51.056;17.056;2022-12-18T16:24:32;92.28;;;31.60;;
62687;SDS011;48752;51.056;17.056;2022-12-18T16:27:01;80.00;;;31.50;;
62687;SDS011;48752;51.056;17.056;2022-12-18T16:29:28;98.22;;;31.52;;
62687;SDS011;48752;51.056;17.056;2022-12-18T16:31:55;91.75;;;35.53;;
62687;SDS011;48752;51.056;17.056;2022-12-18T16:34:29;88.00;;;29.52;;
62687;SDS011;48752;51.056;17.056;2022-12-18T16:36:57;88.38;;;30.27;;
62687;SDS011;48752;51.056;17.056;2022-12-18T16:39:24;89.60;;;30.23;;
62687;SDS011;48752;51.056;17.056;2022-12-18T16:41:51;81.05;;;30.67;;
62687;SDS011;48752;51.056;17.056;2022-12-18T16:44:17;73.72;;;28.15;;
62687;SDS011;48752;51.056;17.056;2022-12-18T16:46:43;92.15;;;30.20;;